Time;durP1;ratioP1;P1;durP2;ratioP2;P2;SDS_P1;SDS_P2;PMS_P1;PMS_P2;Temp;Humidity;BMP_temperature;BMP_pressure;BME280_temperature;BME280_humidity;BME280_pressure;Samples;Min_cycle;Max_cycle;Signal;HPM_P1;HPM_P2
2024/02/16 00:00:47;;;;;;;;;;;5.40;81.30;;;;;;5028707;28;92020;-63
2024/02/16 00:03:12;;;;;;;;;;;5.40;81.30;;;;;;5025530;28;92386;-63
2024/02/16 00:05:38;;;;;;;;;;;5.40;81.30;;;;;;5024692;28;92197;-63
2024/02/16 00:08:04;;;;;;;;;;;5.40;81.10;;;;;;5026477;28;91622;-63
2024/02/16 00:10:30;;;;;;;;;;;5.40;81.10;;;;;;5025407;28;92573;-63
2024/02/16 00:12:56;;;;;;;;;;;5.40;81.10;;;;;;5025486;28;92324;-63
2024/02/16 00:15:22;;;;;;;;;;;5.40;81.10;;;;;;5024895;28;92980;-63
2024/02/16 00:17:48;;;;;;;;;;;5.40;81.10;;;;;;5024060;28;92955;-63
2024/02/16 00:20:13;;;;;;;;;;;5.30;81.00;;;;;;5025367;28;91990;-63
2024/02/16 00:22:39;;;;;;;;;;;5.40;81.10;;;;;;5028399;28;91936;-63
2024/02/16 00:25:05;;;;;;;;;;;5.40;81.10;;;;;;5025763;28;92016;-63
2024/02/16 00:27:31;;;;;;;;;;;5.40;81.00;;;;;;5024217;28;93785;-63
2024/02/16 00:29:56;;;;;;;;;;;5.40;81.10;;;;;;5025039;28;92428;-63
2024/02/16 00:32:24;;;;;;;;;;;5.30;81.10;;;;;;5025998;28;91291;-63
2024/02/16 00:34:52;;;;;;;;;;;5.30;81.00;;;;;;5025076;28;92089;-64
2024/02/16 00:37:17;;;;;;;;;;;5.30;81.00;;;;;;5024894;28;92552;-64
2024/02/16 00:39:43;;;;;;;;;;;5.30;81.00;;;;;;5023575;28;93078;-63
2024/02/16 00:42:08;;;;;;;;;;;5.30;81.00;;;;;;5024975;28;92767;-63
2024/02/16 00:44:34;;;;;;;;;;;5.30;81.00;;;;;;5026181;28;92967;-63
2024/02/16 00:47:00;;;;;;;;;;;5.30;81.00;;;;;;5024289;28;92047;-63
2024/02/16 00:49:25;;;;;;;;;;;5.30;81.00;;;;;;5024752;28;92853;-63
2024/02/16 00:51:51;;;;;;;;;;;5.30;80.90;;;;;;5025132;28;92078;-63
2024/02/16 00:54:17;;;;;;;;;;;5.30;81.00;;;;;;5025158;28;91994;-63
2024/02/16 00:56:43;;;;;;;;;;;5.30;81.00;;;;;;5025204;28;91620;-63
2024/02/16 00:59:09;;;;;;;;;;;5.30;80.90;;;;;;5024563;28;92066;-63
2024/02/16 01:01:35;;;;;;;;;;;5.30;80.90;;;;;;5022101;28;92328;-63
2024/02/16 01:04:02;;;;;;;;;;;5.20;80.90;;;;;;5022436;28;93415;-63
2024/02/16 01:06:27;;;;;;;;;;;5.30;80.90;;;;;;5023965;28;92100;-63
2024/02/16 01:08:53;;;;;;;;;;;5.20;80.80;;;;;;5023880;28;92475;-63
2024/02/16 01:11:19;;;;;;;;;;;5.20;81.10;;;;;;5024951;28;92010;-63
2024/02/16 01:13:47;;;;;;;;;;;5.20;80.90;;;;;;5024463;28;93003;-63
2024/02/16 01:16:13;;;;;;;;;;;5.20;81.00;;;;;;5024192;28;92546;-63
2024/02/16 01:18:39;;;;;;;;;;;5.10;80.90;;;;;;5024583;28;91989;-62
2024/02/16 01:21:05;;;;;;;;;;;5.20;80.90;;;;;;5025378;28;91704;-63
2024/02/16 01:23:31;;;;;;;;;;;5.10;80.90;;;;;;4979027;28;92349;-63
2024/02/16 01:25:56;;;;;;;;;;;5.10;80.80;;;;;;5027826;28;92190;-63
2024/02/16 01:28:23;;;;;;;;;;;5.10;80.90;;;;;;5023608;28;93529;-63
2024/02/16 01:30:48;;;;;;;;;;;5.10;80.80;;;;;;5024399;28;92085;-63
2024/02/16 01:33:14;;;;;;;;;;;5.10;80.90;;;;;;5024497;28;92034;-63
2024/02/16 01:35:40;;;;;;;;;;;5.10;80.90;;;;;;5024127;28;92531;-63
2024/02/16 01:38:05;;;;;;;;;;;5.10;80.80;;;;;;5024579;28;92099;-63
2024/02/16 01:40:31;;;;;;;;;;;5.10;80.90;;;;;;5024059;28;92804;-63
2024/02/16 01:42:57;;;;;;;;;;;5.10;80.90;;;;;;5023714;28;92635;-63
2024/02/16 01:45:22;;;;;;;;;;;5.10;80.90;;;;;;5024737;28;91382;-63
2024/02/16 01:47:49;;;;;;;;;;;5.10;80.80;;;;;;5026775;28;92000;-63
2024/02/16 01:50:15;;;;;;;;;;;5.00;80.90;;;;;;5023832;28;92132;-63
2024/02/16 01:52:45;;;;;;;;;;;5.00;80.90;;;;;;5023923;28;92787;-63
2024/02/16 01:55:10;;;;;;;;;;;5.00;80.90;;;;;;5019850;28;92417;-63
2024/02/16 01:57:38;;;;;;;;;;;5.10;80.80;;;;;;5024259;28;92562;-63
2024/02/16 02:00:07;;;;;;;;;;;5.00;80.90;;;;;;5023960;28;92104;-63
2024/02/16 02:02:36;;;;;;;;;;;5.00;80.80;;;;;;5023329;28;92403;-63
2024/02/16 02:05:01;;;;;;;;;;;5.00;80.80;;;;;;5024004;28;92096;-63
2024/02/16 02:07:27;;;;;;;;;;;5.00;80.80;;;;;;5024067;28;91950;-63
2024/02/16 02:09:53;;;;;;;;;;;5.00;80.80;;;;;;5027082;28;91700;-63
2024/02/16 02:12:19;;;;;;;;;;;4.90;80.70;;;;;;5023826;28;91797;-63
2024/02/16 02:14:46;;;;;;;;;;;4.90;80.70;;;;;;5023419;28;92543;-63
2024/02/16 02:17:12;;;;;;;;;;;4.90;80.70;;;;;;5022725;28;92993;-63
2024/02/16 02:19:37;;;;;;;;;;;4.90;80.80;;;;;;5022826;28;92671;-63
2024/02/16 02:22:03;;;;;;;;;;;4.90;80.70;;;;;;5023365;28;92521;-63
2024/02/16 02:24:28;;;;;;;;;;;4.90;80.70;;;;;;5023936;28;92060;-63
2024/02/16 02:26:54;;;;;;;;;;;4.90;80.70;;;;;;5023533;28;92776;-63
2024/02/16 02:29:20;;;;;;;;;;;4.90;80.70;;;;;;5023193;28;92498;-63
2024/02/16 02:31:45;;;;;;;;;;;4.90;80.70;;;;;;5026882;28;92589;-63
2024/02/16 02:34:11;;;;;;;;;;;4.90;80.70;;;;;;5023658;28;91824;-63
2024/02/16 02:36:37;;;;;;;;;;;4.90;80.70;;;;;;5023755;28;92018;-63
2024/02/16 02:39:02;;;;;;;;;;;4.90;80.70;;;;;;5023548;28;92021;-63
2024/02/16 02:41:28;;;;;;;;;;;4.80;80.70;;;;;;5022047;28;93697;-63
2024/02/16 02:43:54;;;;;;;;;;;4.80;81.30;;;;;;5023419;28;92030;-63
2024/02/16 02:46:20;;;;;;;;;;;4.80;80.60;;;;;;5023451;28;91777;-63
2024/02/16 02:48:46;;;;;;;;;;;4.90;80.60;;;;;;5022867;28;92470;-63
2024/02/16 02:51:11;;;;;;;;;;;4.80;80.60;;;;;;5023483;28;91975;-63
2024/02/16 02:53:37;;;;;;;;;;;4.80;80.60;;;;;;5026183;28;92242;-63
2024/02/16 02:56:03;;;;;;;;;;;4.80;80.60;;;;;;5023125;28;92006;-63
2024/02/16 02:58:29;;;;;;;;;;;4.80;80.70;;;;;;5023438;28;93518;-63
2024/02/16 03:00:54;;;;;;;;;;;4.80;80.60;;;;;;5022724;28;93617;-63
2024/02/16 03:03:20;;;;;;;;;;;4.80;80.70;;;;;;5023153;28;92621;-63
2024/02/16 03:05:46;;;;;;;;;;;4.70;80.60;;;;;;5022905;28;93191;-63
2024/02/16 03:08:11;;;;;;;;;;;4.70;80.60;;;;;;5023145;28;92591;-63
2024/02/16 03:10:37;;;;;;;;;;;4.70;80.60;;;;;;5023181;28;92066;-63
2024/02/16 03:13:02;;;;;;;;;;;4.70;80.70;;;;;;5025812;28;91993;-63
2024/02/16 03:15:29;;;;;;;;;;;4.70;80.70;;;;;;5022951;28;92138;-63
2024/02/16 03:17:55;;;;;;;;;;;4.70;80.60;;;;;;5023020;28;91854;-63
2024/02/16 03:20:21;;;;;;;;;;;4.70;80.60;;;;;;5022604;28;92614;-62
2024/02/16 03:22:46;;;;;;;;;;;4.70;80.60;;;;;;5023500;28;91920;-63
2024/02/16 03:25:12;;;;;;;;;;;4.60;80.60;;;;;;5023115;28;91746;-63
2024/02/16 03:27:38;;;;;;;;;;;4.70;80.60;;;;;;5022506;28;92446;-63
2024/02/16 03:30:04;;;;;;;;;;;4.70;80.60;;;;;;5024026;28;92950;-63
2024/02/16 03:32:31;;;;;;;;;;;4.70;80.50;;;;;;5025996;28;93811;-63
2024/02/16 03:34:57;;;;;;;;;;;4.70;80.50;;;;;;5028986;28;92479;-63
2024/02/16 03:37:22;;;;;;;;;;;4.60;80.50;;;;;;5026164;28;92821;-63
2024/02/16 03:39:48;;;;;;;;;;;4.60;80.50;;;;;;5025733;28;93594;-63
2024/02/16 03:42:14;;;;;;;;;;;4.60;80.60;;;;;;5024491;28;92217;-63
2024/02/16 03:44:39;;;;;;;;;;;4.60;80.50;;;;;;5026195;28;92052;-63
2024/02/16 03:47:05;;;;;;;;;;;4.60;80.50;;;;;;5026190;28;91996;-63
2024/02/16 03:49:30;;;;;;;;;;;4.60;80.60;;;;;;5026095;28;92031;-63
2024/02/16 03:51:56;;;;;;;;;;;4.60;80.60;;;;;;5025979;28;92907;-63
2024/02/16 03:54:21;;;;;;;;;;;4.60;80.50;;;;;;5024601;28;93425;-63
2024/02/16 03:56:48;;;;;;;;;;;4.60;80.50;;;;;;5029019;28;92041;-63
2024/02/16 03:59:14;;;;;;;;;;;4.50;80.50;;;;;;5025317;28;92453;-63
2024/02/16 04:01:41;;;;;;;;;;;4.50;80.60;;;;;;5026228;28;92952;-63
2024/02/16 04:04:07;;;;;;;;;;;4.50;80.60;;;;;;5025791;28;92914;-63
2024/02/16 04:06:32;;;;;;;;;;;4.50;80.50;;;;;;5025398;28;92520;-63
2024/02/16 04:08:58;;;;;;;;;;;4.50;80.50;;;;;;5025810;28;92091;-63
2024/02/16 04:11:23;;;;;;;;;;;4.50;80.50;;;;;;5026300;28;91849;-63
2024/02/16 04:13:49;;;;;;;;;;;4.50;80.50;;;;;;5025263;28;92492;-63
2024/02/16 04:16:15;;;;;;;;;;;4.50;80.50;;;;;;5025475;28;92087;-63
2024/02/16 04:18:40;;;;;;;;;;;4.50;80.50;;;;;;5027541;28;92907;-63
2024/02/16 04:21:06;;;;;;;;;;;4.40;80.50;;;;;;5025801;28;92316;-63
2024/02/16 04:23:32;;;;;;;;;;;4.40;80.50;;;;;;5025708;28;91962;-63
2024/02/16 04:25:57;;;;;;;;;;;4.40;80.50;;;;;;5025022;28;91995;-63
2024/02/16 04:28:24;;;;;;;;;;;4.40;80.50;;;;;;5025749;28;91979;-63
2024/02/16 04:30:49;;;;;;;;;;;4.40;80.50;;;;;;5025606;28;91859;-63
2024/02/16 04:33:15;;;;;;;;;;;4.40;80.60;;;;;;5024994;28;92125;-63
2024/02/16 04:35:41;;;;;;;;;;;4.40;80.40;;;;;;5025552;28;91288;-63
2024/02/16 04:38:06;;;;;;;;;;;4.40;80.50;;;;;;5025658;28;91925;-63
2024/02/16 04:40:36;;;;;;;;;;;4.30;80.40;;;;;;5027291;28;92387;-63
2024/02/16 04:43:02;;;;;;;;;;;4.30;80.50;;;;;;5024226;28;93472;-63
2024/02/16 04:45:30;;;;;;;;;;;4.30;80.50;;;;;;5024923;28;92581;-63
2024/02/16 04:47:55;;;;;;;;;;;4.30;80.40;;;;;;5025221;28;92055;-63
2024/02/16 04:50:21;;;;;;;;;;;4.30;80.30;;;;;;5025331;28;91978;-63
2024/02/16 04:52:46;;;;;;;;;;;4.30;80.40;;;;;;5024502;28;92268;-63
2024/02/16 04:55:13;;;;;;;;;;;4.30;80.40;;;;;;5025262;28;92038;-63
2024/02/16 04:57:38;;;;;;;;;;;4.30;80.40;;;;;;5023487;28;92216;-63
2024/02/16 05:00:04;;;;;;;;;;;4.30;80.40;;;;;;5023412;28;91254;-63
2024/02/16 05:02:29;;;;;;;;;;;4.20;80.50;;;;;;5027970;28;92040;-63
2024/02/16 05:04:55;;;;;;;;;;;4.30;80.50;;;;;;5024641;28;92595;-63
2024/02/16 05:07:21;;;;;;;;;;;4.20;80.30;;;;;;5024107;28;92896;-63
2024/02/16 05:09:46;;;;;;;;;;;4.20;80.30;;;;;;5024820;28;92672;-63
2024/02/16 05:12:12;;;;;;;;;;;4.20;80.40;;;;;;5018667;28;92529;-63
2024/02/16 05:14:37;;;;;;;;;;;4.10;80.50;;;;;;5019615;28;92056;-63
2024/02/16 05:17:03;;;;;;;;;;;4.20;80.50;;;;;;5024173;28;92086;-63
2024/02/16 05:19:32;;;;;;;;;;;4.20;80.40;;;;;;5022186;28;94106;-62
2024/02/16 05:21:57;;;;;;;;;;;4.20;80.30;;;;;;5027936;28;92143;-62
2024/02/16 05:24:23;;;;;;;;;;;4.20;80.30;;;;;;5024876;28;91744;-63
2024/02/16 05:26:51;;;;;;;;;;;4.10;80.30;;;;;;5024302;28;91917;-63
2024/02/16 05:29:16;;;;;;;;;;;4.10;80.50;;;;;;5024059;28;92162;-63
2024/02/16 05:31:42;;;;;;;;;;;4.10;80.50;;;;;;5023515;28;93341;-62
2024/02/16 05:34:07;;;;;;;;;;;4.10;80.50;;;;;;5024657;28;91918;-63
2024/02/16 05:36:35;;;;;;;;;;;4.10;80.40;;;;;;5022559;28;92005;-62
2024/02/16 05:39:10;;;;;;;;;;;4.10;80.40;;;;;;5022522;28;93506;-62
2024/02/16 05:41:37;;;;;;;;;;;4.10;80.30;;;;;;5019979;28;91987;-62
2024/02/16 05:44:02;;;;;;;;;;;4.10;80.40;;;;;;5026878;28;92882;-62
2024/02/16 05:46:28;;;;;;;;;;;4.10;80.30;;;;;;5023607;28;92139;-62
2024/02/16 05:48:54;;;;;;;;;;;4.10;80.20;;;;;;5024902;28;91402;-62
2024/02/16 05:51:19;;;;;;;;;;;4.10;80.20;;;;;;5023500;28;93602;-62
2024/02/16 05:53:47;;;;;;;;;;;4.10;80.20;;;;;;5021690;28;92060;-62
2024/02/16 05:56:12;;;;;;;;;;;4.00;80.30;;;;;;5019387;28;93112;-63
2024/02/16 05:58:38;;;;;;;;;;;4.00;80.30;;;;;;5023642;28;92302;-62
2024/02/16 06:01:03;;;;;;;;;;;4.00;80.30;;;;;;5024261;28;91984;-62
2024/02/16 06:03:29;;;;;;;;;;;4.00;80.40;;;;;;5023428;28;92124;-62
2024/02/16 06:05:54;;;;;;;;;;;4.00;80.40;;;;;;5026797;28;92458;-62
2024/02/16 06:08:20;;;;;;;;;;;4.00;80.30;;;;;;5023490;28;92637;-63
2024/02/16 06:10:53;;;;;;;;;;;4.00;80.40;;;;;;5022679;28;92001;-62
2024/02/16 06:13:19;;;;;;;;;;;4.00;80.40;;;;;;5021222;28;91352;-62
2024/02/16 06:15:45;;;;;;;;;;;4.00;80.40;;;;;;5021410;28;92189;-62
2024/02/16 06:18:10;;;;;;;;;;;3.90;80.30;;;;;;5022586;28;92520;-62
2024/02/16 06:20:36;;;;;;;;;;;3.90;80.40;;;;;;5022020;28;92938;-62
2024/02/16 06:23:01;;;;;;;;;;;3.90;80.30;;;;;;5023824;28;91940;-62
2024/02/16 06:25:27;;;;;;;;;;;3.90;80.30;;;;;;5023414;28;92475;-63
2024/02/16 06:27:53;;;;;;;;;;;3.90;80.40;;;;;;5026359;28;92069;-63
2024/02/16 06:30:18;;;;;;;;;;;3.90;80.30;;;;;;5022970;28;91955;-62
2024/02/16 06:32:44;;;;;;;;;;;3.90;80.40;;;;;;5022855;28;91963;-60
2024/02/16 06:35:09;;;;;;;;;;;3.90;80.40;;;;;;5019948;28;93058;-62
2024/02/16 06:37:37;;;;;;;;;;;3.90;80.30;;;;;;5023786;28;91662;-63
2024/02/16 06:40:02;;;;;;;;;;;3.90;80.30;;;;;;5023401;28;92020;-62
2024/02/16 06:42:29;;;;;;;;;;;3.90;80.20;;;;;;5023200;28;91905;-62
2024/02/16 06:44:54;;;;;;;;;;;3.90;80.20;;;;;;5017835;28;93406;-62
2024/02/16 06:47:20;;;;;;;;;;;3.90;80.30;;;;;;5022551;28;92823;-62
2024/02/16 06:49:46;;;;;;;;;;;3.90;80.40;;;;;;5026073;28;92063;-62
2024/02/16 06:52:12;;;;;;;;;;;3.90;80.30;;;;;;5022854;28;92106;-63
2024/02/16 06:54:38;;;;;;;;;;;3.90;80.20;;;;;;5023474;28;91882;-62
2024/02/16 06:57:03;;;;;;;;;;;3.90;80.20;;;;;;5022921;28;92543;-62
2024/02/16 06:59:29;;;;;;;;;;;3.90;80.20;;;;;;5022610;28;92093;-62
2024/02/16 07:01:54;;;;;;;;;;;3.90;80.20;;;;;;5019900;28;91686;-62
2024/02/16 07:04:20;;;;;;;;;;;3.90;80.20;;;;;;5024575;28;93562;-62
2024/02/16 07:06:45;;;;;;;;;;;3.90;80.20;;;;;;5030146;28;91974;-62
2024/02/16 07:09:14;;;;;;;;;;;3.90;80.20;;;;;;5029245;28;92875;-62
2024/02/16 07:11:39;;;;;;;;;;;3.80;80.20;;;;;;5032185;28;92627;-62
2024/02/16 07:16:49;;;;;;;;;;;3.80;80.10;;;;;;5024808;28;92184;-62
2024/02/16 07:19:15;;;;;;;;;;;3.90;80.20;;;;;;5028281;28;92071;-62
2024/02/16 07:21:40;;;;;;;;;;;3.90;80.30;;;;;;5029831;28;92110;-62
2024/02/16 07:24:06;;;;;;;;;;;3.90;80.20;;;;;;5029301;28;92376;-62
2024/02/16 07:26:33;;;;;;;;;;;3.90;80.20;;;;;;5030395;28;91207;-63
2024/02/16 07:28:58;;;;;;;;;;;3.90;80.20;;;;;;5028931;28;92259;-62
2024/02/16 07:31:24;;;;;;;;;;;3.90;80.20;;;;;;5026849;28;92490;-62
2024/02/16 07:33:50;;;;;;;;;;;3.80;80.20;;;;;;5026941;28;94695;-62
2024/02/16 07:36:17;;;;;;;;;;;3.80;80.20;;;;;;5025363;28;92582;-62
2024/02/16 07:38:43;;;;;;;;;;;3.90;80.30;;;;;;5026462;28;92672;-62
2024/02/16 07:41:09;;;;;;;;;;;3.80;80.20;;;;;;5028654;28;92076;-62
2024/02/16 07:43:34;;;;;;;;;;;3.90;80.20;;;;;;5028925;28;92459;-62
2024/02/16 07:46:00;;;;;;;;;;;3.90;80.20;;;;;;5029010;28;92105;-62
2024/02/16 07:48:26;;;;;;;;;;;3.90;80.20;;;;;;5029476;28;92745;-62
2024/02/16 07:50:53;;;;;;;;;;;3.90;80.30;;;;;;5029253;28;92579;-62
2024/02/16 07:53:19;;;;;;;;;;;3.90;80.30;;;;;;5032405;28;92088;-62
2024/02/16 07:55:44;;;;;;;;;;;3.90;80.30;;;;;;5028776;28;92669;-62
2024/02/16 07:58:10;;;;;;;;;;;3.80;80.40;;;;;;5028703;28;93092;-62
2024/02/16 08:00:36;;;;;;;;;;;3.80;80.50;;;;;;5029008;28;93778;-62
2024/02/16 08:03:02;;;;;;;;;;;3.80;80.50;;;;;;5028853;28;92593;-63
2024/02/16 08:05:28;;;;;;;;;;;3.80;80.50;;;;;;5029026;28;92698;-62
2024/02/16 08:07:53;;;;;;;;;;;3.80;80.60;;;;;;5028806;28;92846;-62
2024/02/16 08:10:20;;;;;;;;;;;3.80;80.70;;;;;;5028404;28;93435;-63
2024/02/16 08:12:46;;;;;;;;;;;3.80;80.90;;;;;;5026744;28;92117;-60
2024/02/16 08:15:12;;;;;;;;;;;3.80;80.90;;;;;;5024867;28;92679;-62
2024/02/16 08:17:39;;;;;;;;;;;3.80;81.00;;;;;;5023696;28;92081;-62
2024/02/16 08:20:04;;;;;;;;;;;3.70;81.00;;;;;;5025071;28;92010;-63
2024/02/16 08:22:30;;;;;;;;;;;3.80;81.10;;;;;;5024628;28;93513;-63
2024/02/16 08:24:56;;;;;;;;;;;3.80;81.10;;;;;;5025487;28;92015;-62
2024/02/16 08:27:21;;;;;;;;;;;3.70;81.10;;;;;;5021572;28;92876;-62
2024/02/16 08:29:47;;;;;;;;;;;3.70;81.10;;;;;;5024423;28;92454;-62
2024/02/16 08:32:13;;;;;;;;;;;3.80;81.10;;;;;;5024148;28;92074;-63
2024/02/16 08:34:38;;;;;;;;;;;3.70;81.00;;;;;;5025158;28;91976;-62
2024/02/16 08:37:05;;;;;;;;;;;3.80;81.20;;;;;;5028083;28;92466;-62
2024/02/16 08:39:31;;;;;;;;;;;3.70;81.20;;;;;;5025977;28;91753;-62
2024/02/16 08:41:56;;;;;;;;;;;3.70;81.20;;;;;;5021910;28;93649;-62
2024/02/16 08:44:22;;;;;;;;;;;3.70;81.20;;;;;;5024483;28;91990;-62
2024/02/16 08:46:49;;;;;;;;;;;3.70;81.40;;;;;;5022115;28;93000;-62
2024/02/16 08:49:15;;;;;;;;;;;3.70;81.70;;;;;;5024616;28;93459;-62
2024/02/16 08:51:40;;;;;;;;;;;3.70;81.60;;;;;;5025463;28;92030;-62
2024/02/16 08:54:06;;;;;;;;;;;3.70;81.50;;;;;;5024616;28;91994;-62
2024/02/16 08:56:34;;;;;;;;;;;3.80;81.60;;;;;;5023972;28;92084;-62
2024/02/16 08:58:59;;;;;;;;;;;3.80;81.50;;;;;;5026429;28;92069;-62
2024/02/16 09:01:39;;;;;;;;;;;3.80;81.60;;;;;;5018860;28;92369;-62
2024/02/16 09:04:04;;;;;;;;;;;3.70;81.60;;;;;;5024382;28;91103;-62
2024/02/16 09:06:30;;;;;;;;;;;3.70;81.70;;;;;;5023318;28;91980;-62
2024/02/16 09:08:56;;;;;;;;;;;3.70;81.70;;;;;;5021597;28;95324;-63
2024/02/16 09:11:22;;;;;;;;;;;3.70;81.70;;;;;;5024337;28;93539;-62
2024/02/16 09:13:47;;;;;;;;;;;3.80;81.80;;;;;;5024976;28;92771;-62
2024/02/16 09:16:13;;;;;;;;;;;3.70;81.70;;;;;;5024116;28;92509;-62
2024/02/16 09:18:39;;;;;;;;;;;3.70;81.80;;;;;;5021514;28;92044;-62
2024/02/16 09:21:05;;;;;;;;;;;3.70;81.90;;;;;;5026671;28;91854;-62
2024/02/16 09:23:31;;;;;;;;;;;3.80;81.90;;;;;;5024803;28;92265;-62
2024/02/16 09:25:56;;;;;;;;;;;3.70;81.90;;;;;;5024109;28;92001;-62
2024/02/16 09:28:22;;;;;;;;;;;3.70;81.90;;;;;;5023467;28;92590;-62
2024/02/16 09:30:48;;;;;;;;;;;3.70;81.90;;;;;;5024697;28;92026;-62
2024/02/16 09:33:13;;;;;;;;;;;3.80;82.00;;;;;;5023320;28;91898;-62
2024/02/16 09:35:39;;;;;;;;;;;3.70;82.00;;;;;;5018094;28;94573;-62
2024/02/16 09:38:05;;;;;;;;;;;3.80;82.00;;;;;;5022983;28;91998;-62
2024/02/16 09:40:30;;;;;;;;;;;3.80;82.10;;;;;;5021879;28;92998;-61
2024/02/16 09:42:56;;;;;;;;;;;3.80;82.00;;;;;;5023826;28;91929;-62
2024/02/16 09:45:24;;;;;;;;;;;3.80;81.90;;;;;;5024477;28;91923;-62
2024/02/16 09:47:50;;;;;;;;;;;3.80;82.00;;;;;;5022751;28;92306;-62
2024/02/16 09:50:16;;;;;;;;;;;3.80;82.10;;;;;;5024606;28;92078;-62
2024/02/16 09:52:46;;;;;;;;;;;3.70;82.00;;;;;;5024753;28;92755;-63
2024/02/16 09:55:12;;;;;;;;;;;3.80;82.20;;;;;;5019667;28;92567;-63
2024/02/16 09:57:38;;;;;;;;;;;3.80;82.10;;;;;;5024231;28;91898;-62
2024/02/16 10:00:06;;;;;;;;;;;3.70;82.10;;;;;;5021298;28;93610;-62
2024/02/16 10:02:43;;;;;;;;;;;3.80;82.10;;;;;;5026442;28;93568;-62
2024/02/16 10:05:11;;;;;;;;;;;3.80;82.20;;;;;;5020485;28;91966;-62
2024/02/16 10:07:37;;;;;;;;;;;3.80;82.10;;;;;;5023298;28;93740;-63
2024/02/16 10:10:02;;;;;;;;;;;3.80;82.20;;;;;;5018756;28;92068;-63
2024/02/16 10:12:28;;;;;;;;;;;3.80;82.10;;;;;;5024031;28;92113;-62
2024/02/16 10:14:55;;;;;;;;;;;3.80;82.20;;;;;;5023204;28;93712;-63
2024/02/16 10:17:21;;;;;;;;;;;3.80;82.30;;;;;;5024342;28;91185;-63
2024/02/16 10:19:55;;;;;;;;;;;3.80;82.00;;;;;;5023255;28;91890;-62
2024/02/16 10:22:22;;;;;;;;;;;3.80;82.30;;;;;;5023210;28;92621;-63
2024/02/16 10:24:50;;;;;;;;;;;3.80;82.00;;;;;;5026406;28;92792;-62
2024/02/16 10:27:16;;;;;;;;;;;3.90;82.30;;;;;;5018752;28;92518;-63
2024/02/16 10:29:44;;;;;;;;;;;3.90;82.20;;;;;;5020942;28;92028;-63
2024/02/16 10:32:10;;;;;;;;;;;3.90;82.50;;;;;;5023191;28;92244;-63
2024/02/16 10:34:37;;;;;;;;;;;3.90;82.50;;;;;;5023279;28;92537;-63
2024/02/16 10:37:03;;;;;;;;;;;3.90;82.30;;;;;;5022530;28;92183;-63
2024/02/16 10:39:29;;;;;;;;;;;3.90;82.20;;;;;;5022754;28;92011;-62
2024/02/16 10:41:57;;;;;;;;;;;3.90;82.40;;;;;;5019443;28;91795;-62
2024/02/16 10:44:22;;;;;;;;;;;3.90;82.40;;;;;;5020741;28;92508;-63
2024/02/16 10:46:48;;;;;;;;;;;3.90;82.20;;;;;;5025398;28;92030;-62
2024/02/16 10:49:14;;;;;;;;;;;4.00;82.30;;;;;;5021836;28;92967;-63
2024/02/16 10:51:39;;;;;;;;;;;4.00;82.30;;;;;;5019939;28;92633;-63
2024/02/16 10:54:06;;;;;;;;;;;4.00;82.30;;;;;;5022922;28;91809;-63
2024/02/16 10:56:39;;;;;;;;;;;4.00;82.40;;;;;;5021947;28;91991;-62
2024/02/16 10:59:09;;;;;;;;;;;4.00;82.30;;;;;;5019567;28;92113;-62
2024/02/16 11:01:41;;;;;;;;;;;4.00;82.30;;;;;;5021744;28;92539;-62
2024/02/16 11:04:16;;;;;;;;;;;4.00;82.20;;;;;;5023331;28;91970;-62
2024/02/16 11:07:01;;;;;;;;;;;4.00;82.30;;;;;;5020503;28;91310;-63
2024/02/16 11:09:27;;;;;;;;;;;4.00;82.20;;;;;;5022287;28;92774;-63
2024/02/16 11:11:54;;;;;;;;;;;4.10;82.30;;;;;;5022695;28;92087;-63
2024/02/16 11:14:21;;;;;;;;;;;4.10;82.30;;;;;;5019992;28;93498;-62
2024/02/16 11:16:46;;;;;;;;;;;4.10;82.10;;;;;;5022993;28;92091;-62
2024/02/16 11:19:16;;;;;;;;;;;4.10;82.40;;;;;;5022583;28;92793;-62
2024/02/16 11:21:57;;;;;;;;;;;4.10;82.20;;;;;;5017602;28;93483;-62
2024/02/16 11:24:46;;;;;;;;;;;4.10;82.30;;;;;;5022757;28;92025;-62
2024/02/16 11:27:12;;;;;;;;;;;4.10;82.30;;;;;;5017304;28;92004;-62
2024/02/16 11:29:38;;;;;;;;;;;4.10;82.10;;;;;;5022026;28;93577;-62
2024/02/16 11:32:07;;;;;;;;;;;4.10;82.20;;;;;;5026142;28;91154;-62
2024/02/16 11:34:34;;;;;;;;;;;4.10;82.20;;;;;;5022520;28;92506;-62
2024/02/16 11:37:00;;;;;;;;;;;4.20;82.50;;;;;;5021312;28;92032;-62
2024/02/16 11:39:26;;;;;;;;;;;4.20;82.30;;;;;;5021974;28;93044;-62
2024/02/16 11:42:07;;;;;;;;;;;4.20;82.20;;;;;;5022064;28;92452;-62
2024/02/16 11:44:35;;;;;;;;;;;4.20;82.20;;;;;;5019010;28;92124;-63
2024/02/16 11:47:01;;;;;;;;;;;4.20;82.30;;;;;;5022759;28;92015;-62
2024/02/16 11:49:28;;;;;;;;;;;4.30;82.40;;;;;;5021150;28;92439;-62
2024/02/16 11:51:54;;;;;;;;;;;4.30;82.60;;;;;;5028657;28;91996;-63
2024/02/16 11:54:19;;;;;;;;;;;4.30;82.50;;;;;;5020759;28;95177;-62
2024/02/16 11:56:45;;;;;;;;;;;4.30;82.80;;;;;;5026689;28;91343;-62
2024/02/16 11:59:14;;;;;;;;;;;4.40;82.60;;;;;;5025703;28;91955;-62
2024/02/16 12:01:54;;;;;;;;;;;4.40;82.30;;;;;;5024633;28;93685;-63
2024/02/16 12:04:29;;;;;;;;;;;4.40;82.50;;;;;;5024617;28;92954;-62
2024/02/16 12:06:58;;;;;;;;;;;4.40;82.40;;;;;;5022487;28;92779;-62
2024/02/16 12:09:24;;;;;;;;;;;4.40;82.20;;;;;;5025513;28;92516;-62
2024/02/16 12:11:50;;;;;;;;;;;4.40;82.30;;;;;;5025930;28;92002;-63
2024/02/16 12:14:17;;;;;;;;;;;4.40;82.80;;;;;;5028500;28;91979;-62
2024/02/16 12:16:46;;;;;;;;;;;4.50;82.10;;;;;;5021032;28;92082;-62
2024/02/16 12:19:12;;;;;;;;;;;4.50;82.00;;;;;;5022051;28;91969;-62
2024/02/16 12:21:38;;;;;;;;;;;4.50;81.90;;;;;;5023305;28;91780;-63
2024/02/16 12:24:04;;;;;;;;;;;4.50;82.00;;;;;;5025830;28;92008;-62
2024/02/16 12:26:29;;;;;;;;;;;4.50;81.90;;;;;;5023195;28;91878;-62
2024/02/16 12:28:55;;;;;;;;;;;4.50;81.80;;;;;;5022942;28;93469;-62
2024/02/16 12:31:21;;;;;;;;;;;4.50;81.80;;;;;;5025616;28;92126;-63
2024/02/16 12:33:46;;;;;;;;;;;4.60;81.80;;;;;;5025533;28;92986;-63
2024/02/16 12:36:12;;;;;;;;;;;4.60;81.70;;;;;;5026070;28;93752;-62
2024/02/16 12:38:37;;;;;;;;;;;4.60;81.80;;;;;;5025007;28;92094;-62
2024/02/16 12:41:03;;;;;;;;;;;4.60;81.70;;;;;;5024715;28;92407;-63
2024/02/16 12:43:29;;;;;;;;;;;4.60;81.70;;;;;;5025360;28;92021;-63
2024/02/16 12:45:55;;;;;;;;;;;4.60;81.90;;;;;;5025177;28;91431;-63
2024/02/16 12:48:20;;;;;;;;;;;4.70;82.20;;;;;;5025002;28;92449;-63
2024/02/16 12:50:47;;;;;;;;;;;4.60;81.80;;;;;;5024604;28;92214;-63
2024/02/16 12:53:12;;;;;;;;;;;4.70;82.40;;;;;;5024438;28;92889;-63
2024/02/16 12:55:38;;;;;;;;;;;4.70;82.00;;;;;;5024118;28;92539;-63
2024/02/16 12:58:04;;;;;;;;;;;4.70;81.90;;;;;;5028355;28;91950;-63
2024/02/16 13:00:29;;;;;;;;;;;4.70;82.20;;;;;;5024366;28;93350;-63
2024/02/16 13:02:55;;;;;;;;;;;4.80;82.20;;;;;;5023455;28;92126;-63
2024/02/16 13:05:21;;;;;;;;;;;4.80;82.50;;;;;;5020814;28;91942;-62
2024/02/16 13:07:46;;;;;;;;;;;4.80;82.20;;;;;;5017524;28;93631;-63
2024/02/16 13:10:12;;;;;;;;;;;4.80;82.10;;;;;;5023336;28;91396;-63
2024/02/16 13:12:38;;;;;;;;;;;4.80;82.20;;;;;;5023639;28;92616;-63
2024/02/16 13:15:05;;;;;;;;;;;4.80;82.00;;;;;;5020135;28;91901;-63
2024/02/16 13:17:30;;;;;;;;;;;4.90;82.20;;;;;;5024046;28;93635;-63
2024/02/16 13:20:04;;;;;;;;;;;4.90;82.20;;;;;;5027468;28;92655;-62
2024/02/16 13:22:29;;;;;;;;;;;4.90;82.20;;;;;;5024800;28;91863;-63
2024/02/16 13:24:55;;;;;;;;;;;4.90;81.80;;;;;;5024753;28;91917;-63
2024/02/16 13:27:20;;;;;;;;;;;4.90;82.60;;;;;;5024305;28;92549;-63
2024/02/16 13:29:46;;;;;;;;;;;4.90;81.80;;;;;;5024790;28;92057;-63
2024/02/16 13:32:11;;;;;;;;;;;5.00;81.80;;;;;;5024906;28;92112;-63
2024/02/16 13:34:37;;;;;;;;;;;5.00;82.50;;;;;;5024525;28;91128;-63
2024/02/16 13:37:02;;;;;;;;;;;5.00;82.00;;;;;;5024520;28;91885;-63
2024/02/16 13:39:28;;;;;;;;;;;5.00;82.00;;;;;;5027204;28;92021;-63
2024/02/16 13:41:53;;;;;;;;;;;5.10;83.40;;;;;;5023496;28;92984;-63
2024/02/16 13:44:20;;;;;;;;;;;5.10;82.70;;;;;;5023930;28;92754;-63
2024/02/16 13:46:47;;;;;;;;;;;5.10;82.20;;;;;;5023215;28;92516;-63
2024/02/16 13:49:14;;;;;;;;;;;5.10;83.10;;;;;;5019903;28;92058;-63
2024/02/16 13:51:39;;;;;;;;;;;5.10;82.80;;;;;;5023844;28;91994;-63
2024/02/16 13:54:05;;;;;;;;;;;5.20;82.70;;;;;;5022578;28;92219;-63
2024/02/16 13:56:31;;;;;;;;;;;5.20;82.70;;;;;;5024221;28;92084;-63
2024/02/16 13:58:56;;;;;;;;;;;5.20;83.20;;;;;;5024805;28;92811;-63
2024/02/16 14:01:22;;;;;;;;;;;5.20;83.20;;;;;;5026511;28;92468;-63
2024/02/16 14:03:49;;;;;;;;;;;5.20;83.30;;;;;;5024219;28;92010;-63
2024/02/16 14:06:15;;;;;;;;;;;5.20;83.40;;;;;;5023029;28;93449;-63
2024/02/16 14:08:40;;;;;;;;;;;5.20;83.00;;;;;;5024129;28;92114;-63
2024/02/16 14:11:06;;;;;;;;;;;5.30;83.10;;;;;;5023140;28;92742;-63
2024/02/16 14:13:31;;;;;;;;;;;5.30;83.50;;;;;;5022814;28;92536;-63
2024/02/16 14:15:57;;;;;;;;;;;5.30;83.50;;;;;;5023434;28;92195;-63
2024/02/16 14:18:22;;;;;;;;;;;5.30;84.20;;;;;;5024049;28;91935;-63
2024/02/16 14:20:48;;;;;;;;;;;5.30;83.80;;;;;;5023438;28;92528;-63
2024/02/16 14:23:14;;;;;;;;;;;5.30;83.60;;;;;;5027289;28;91342;-63
2024/02/16 14:25:40;;;;;;;;;;;5.30;83.80;;;;;;5023519;28;92377;-63
2024/02/16 14:28:06;;;;;;;;;;;5.40;83.70;;;;;;5020455;28;92380;-63